createdAt,value
2018-07-12T00:01:36.856Z,6.80
2018-07-12T00:04:05.287Z,5.50
2018-07-12T00:06:33.744Z,6.57
2018-07-12T00:09:02.237Z,4.70
2018-07-12T00:11:30.725Z,6.50
2018-07-12T00:13:59.149Z,4.90
2018-07-12T00:16:27.576Z,5.83
2018-07-12T00:18:56.054Z,7.30
2018-07-12T00:21:24.489Z,6.23
2018-07-12T00:23:52.952Z,5.20
2018-07-12T00:26:26.776Z,5.77
2018-07-12T00:28:55.151Z,6.03
2018-07-12T00:31:23.585Z,6.53
2018-07-12T00:33:52.059Z,7.37
2018-07-12T00:36:20.666Z,7.00
2018-07-12T00:38:49.104Z,6.23
2018-07-12T00:41:17.560Z,6.77
2018-07-12T00:43:45.992Z,5.20
2018-07-12T00:46:15.334Z,7.67
2018-07-12T00:48:43.782Z,6.53
2018-07-12T00:51:12.263Z,5.83
2018-07-12T00:53:40.780Z,6.50
2018-07-12T00:56:09.194Z,6.33
2018-07-12T00:58:37.650Z,8.30
2018-07-12T01:01:06.079Z,8.50
2018-07-12T01:03:34.539Z,7.77
2018-07-12T01:06:03.025Z,9.67
2018-07-12T01:08:31.490Z,9.67
2018-07-12T01:10:59.939Z,9.30
2018-07-12T01:13:28.377Z,11.03
2018-07-12T01:15:56.817Z,9.73
2018-07-12T01:18:25.259Z,11.27
2018-07-12T01:20:53.751Z,11.70
2018-07-12T01:23:22.185Z,12.10
2018-07-12T01:25:50.635Z,11.30
2018-07-12T01:28:19.114Z,10.67
2018-07-12T01:30:47.648Z,12.10
2018-07-12T01:33:16.087Z,13.07
2018-07-12T01:35:44.548Z,11.73
2018-07-12T01:38:12.992Z,10.73
2018-07-12T01:40:41.452Z,10.70
2018-07-12T01:43:10.138Z,11.17
2018-07-12T01:45:38.619Z,10.37
2018-07-12T01:48:07.205Z,11.67
2018-07-12T01:50:35.656Z,11.90
2018-07-12T01:53:04.084Z,11.43
2018-07-12T01:55:32.725Z,11.37
2018-07-12T01:58:01.530Z,14.20
2018-07-12T02:00:29.949Z,9.60
2018-07-12T02:02:58.369Z,8.93
2018-07-12T02:05:26.821Z,7.93
2018-07-12T02:07:55.242Z,7.53
2018-07-12T02:10:23.707Z,9.47
2018-07-12T02:12:52.132Z,8.50
2018-07-12T02:15:20.665Z,8.20
2018-07-12T02:17:49.348Z,7.73
2018-07-12T02:20:17.753Z,6.50
2018-07-12T02:22:46.202Z,6.33
2018-07-12T02:25:14.900Z,7.90
2018-07-12T02:27:43.426Z,9.60
2018-07-12T02:30:12.128Z,6.07
2018-07-12T02:32:40.737Z,6.83
2018-07-12T02:35:09.208Z,6.60
2018-07-12T02:37:37.623Z,6.60
2018-07-12T02:40:06.060Z,7.60
2018-07-12T02:42:34.483Z,7.80
2018-07-12T02:45:02.949Z,9.93
2018-07-12T02:47:31.383Z,8.90
2018-07-12T02:49:59.893Z,10.03
2018-07-12T02:52:28.383Z,9.40
2018-07-12T02:54:57.068Z,10.73
2018-07-12T02:57:25.472Z,8.57
2018-07-12T02:59:53.910Z,7.57
2018-07-12T03:02:22.343Z,9.67
2018-07-12T03:04:50.772Z,7.53
2018-07-12T03:07:19.202Z,9.20
2018-07-12T03:09:47.683Z,9.33
2018-07-12T03:12:16.364Z,8.97
2018-07-12T03:14:44.832Z,8.03
2018-07-12T03:17:13.262Z,7.40
2018-07-12T03:19:41.682Z,6.87
2018-07-12T03:22:10.107Z,7.13
2018-07-12T03:24:38.569Z,8.27
2018-07-12T03:27:07.031Z,5.73
2018-07-12T03:29:35.802Z,6.90
2018-07-12T03:32:04.172Z,8.00
2018-07-12T03:34:32.689Z,8.33
2018-07-12T03:37:01.124Z,6.50
2018-07-12T03:39:29.560Z,8.03
2018-07-12T03:41:58.131Z,7.83
2018-07-12T03:44:26.610Z,6.47
2018-07-12T03:46:55.040Z,7.03
2018-07-12T03:49:23.505Z,6.80
2018-07-12T03:51:51.935Z,8.40
2018-07-12T03:54:20.412Z,8.13
2018-07-12T03:56:49.118Z,7.60
2018-07-12T03:59:17.458Z,7.00
2018-07-12T04:01:45.881Z,6.77
2018-07-12T04:04:14.347Z,7.20
2018-07-12T04:06:42.801Z,6.87
2018-07-12T04:09:11.241Z,6.80
2018-07-12T04:11:39.677Z,6.73
2018-07-12T04:14:08.158Z,8.13
2018-07-12T04:16:36.706Z,7.37
2018-07-12T04:19:05.162Z,7.60
2018-07-12T04:21:33.579Z,6.40
2018-07-12T04:24:02.006Z,7.13
2018-07-12T04:26:30.512Z,5.93
2018-07-12T04:28:58.921Z,6.90
2018-07-12T04:31:27.365Z,6.73
2018-07-12T04:33:55.800Z,6.70
2018-07-12T04:36:24.225Z,6.87
2018-07-12T04:38:52.717Z,6.70
2018-07-12T04:41:21.137Z,6.47
2018-07-12T04:43:49.641Z,7.50
2018-07-12T04:46:18.331Z,6.90
2018-07-12T04:48:46.789Z,5.70
2018-07-12T04:51:15.274Z,5.70
2018-07-12T04:53:43.857Z,6.57
2018-07-12T04:56:12.299Z,7.70
2018-07-12T04:58:40.728Z,7.73
2018-07-12T05:01:09.432Z,9.13
2018-07-12T05:03:37.785Z,9.33
2018-07-12T05:06:06.757Z,9.00
2018-07-12T05:08:35.192Z,8.70
2018-07-12T05:11:04.561Z,10.20
2018-07-12T05:13:32.990Z,10.43
2018-07-12T05:16:01.434Z,9.80
2018-07-12T05:18:29.873Z,8.87
2018-07-12T05:20:58.614Z,7.87
2018-07-12T05:23:27.349Z,8.27
2018-07-12T05:25:56.349Z,7.70
2018-07-12T05:28:24.867Z,7.53
2018-07-12T05:30:53.386Z,11.33
2018-07-12T05:35:59.134Z,8.23
2018-07-12T05:38:29.445Z,6.70
2018-07-12T05:40:59.865Z,6.70
2018-07-12T05:43:29.744Z,7.17
2018-07-12T05:46:00.117Z,7.00
2018-07-12T05:48:30.410Z,6.30
2018-07-12T05:51:00.974Z,7.57
2018-07-12T05:53:31.493Z,7.37
2018-07-12T05:56:02.110Z,7.27
2018-07-12T05:58:32.355Z,9.00
2018-07-12T06:01:02.837Z,5.73
2018-07-12T06:03:33.272Z,6.00
2018-07-12T06:06:03.886Z,6.30
2018-07-12T06:08:34.546Z,5.77
2018-07-12T06:11:05.202Z,6.53
2018-07-12T06:13:35.523Z,5.13
2018-07-12T06:16:06.357Z,5.10
2018-07-12T06:18:36.892Z,5.60
2018-07-12T06:21:07.474Z,6.07
2018-07-12T06:23:38.128Z,6.70
2018-07-12T06:26:08.703Z,6.37
2018-07-12T06:28:39.458Z,5.83
2018-07-12T06:31:10.257Z,4.60
2018-07-12T06:33:41.681Z,4.40
2018-07-12T06:36:12.143Z,5.50
2018-07-12T06:38:42.705Z,4.00
2018-07-12T06:41:13.740Z,4.10
2018-07-12T06:43:44.429Z,4.40
2018-07-12T06:46:15.014Z,3.93
2018-07-12T06:48:45.585Z,3.33
2018-07-12T06:51:16.372Z,2.70
2018-07-12T06:53:49.908Z,3.10
2018-07-12T06:56:20.604Z,3.13
2018-07-12T06:58:51.215Z,3.07
2018-07-12T07:01:22.070Z,2.50
2018-07-12T07:03:52.653Z,3.10
2018-07-12T07:06:23.396Z,3.10
2018-07-12T07:08:54.130Z,2.97
2018-07-12T07:11:24.629Z,3.40
2018-07-12T07:13:55.292Z,3.90
2018-07-12T07:16:26.028Z,3.90
2018-07-12T07:18:56.659Z,3.93
2018-07-12T07:21:27.205Z,4.30
2018-07-12T07:23:58.007Z,3.30
2018-07-12T07:26:28.748Z,3.40
2018-07-12T07:28:59.468Z,4.10
2018-07-12T07:31:30.161Z,3.70
2018-07-12T07:34:00.798Z,3.87
2018-07-12T07:36:31.374Z,3.20
2018-07-12T07:39:01.621Z,3.90
2018-07-12T07:41:32.046Z,3.90
2018-07-12T07:44:02.693Z,3.37
2018-07-12T07:46:33.174Z,3.73
2018-07-12T07:49:03.955Z,3.23
2018-07-12T07:51:34.487Z,2.97
2018-07-12T07:54:05.182Z,2.93
2018-07-12T07:56:35.937Z,2.63
2018-07-12T07:59:06.538Z,2.80
2018-07-12T08:01:37.238Z,3.17
2018-07-12T08:04:07.917Z,2.73
2018-07-12T08:06:38.920Z,2.50
2018-07-12T08:09:09.777Z,2.67
2018-07-12T08:11:40.436Z,2.30
2018-07-12T08:14:11.177Z,3.80
2018-07-12T08:16:41.421Z,2.80
2018-07-12T08:19:12.078Z,3.20
2018-07-12T08:21:42.748Z,2.97
2018-07-12T08:24:13.304Z,2.20
2018-07-12T08:26:43.880Z,2.47
2018-07-12T08:29:14.536Z,1.90
2018-07-12T08:31:45.381Z,1.70
2018-07-12T08:34:15.875Z,1.50
2018-07-12T08:36:46.450Z,1.80
2018-07-12T08:39:17.149Z,1.90
2018-07-12T08:41:47.916Z,2.17
2018-07-12T08:44:18.874Z,1.83
2018-07-12T08:46:49.990Z,2.10
2018-07-12T08:49:20.592Z,2.30
2018-07-12T08:51:51.075Z,2.70
2018-07-12T08:54:21.660Z,2.90
2018-07-12T08:56:52.385Z,2.77
2018-07-12T08:59:22.971Z,3.00
2018-07-12T09:01:53.490Z,3.30
2018-07-12T09:04:24.229Z,2.90
2018-07-12T09:06:54.921Z,3.00
2018-07-12T09:09:25.276Z,2.50
2018-07-12T09:11:55.416Z,2.17
2018-07-12T09:14:25.975Z,2.27
2018-07-12T09:16:56.539Z,2.00
2018-07-12T09:19:27.060Z,1.80
2018-07-12T09:21:57.682Z,2.10
2018-07-12T09:24:28.312Z,1.30
2018-07-12T09:26:58.859Z,1.63
2018-07-12T09:29:29.632Z,1.10
2018-07-12T09:32:00.208Z,2.07
2018-07-12T09:34:31.093Z,1.30
2018-07-12T09:37:01.856Z,1.63
2018-07-12T09:39:32.726Z,1.50
2018-07-12T09:42:03.360Z,1.60
2018-07-12T09:44:34.213Z,1.50
2018-07-12T09:47:04.859Z,1.83
2018-07-12T09:49:35.461Z,2.10
2018-07-12T09:52:10.390Z,1.67
2018-07-12T09:54:41.015Z,1.77
2018-07-12T09:57:28.508Z,2.30
2018-07-12T09:59:59.089Z,1.80
2018-07-12T10:02:34.897Z,1.80
2018-07-12T10:05:09.605Z,1.80
2018-07-12T10:07:47.143Z,2.80
2018-07-12T10:10:17.784Z,1.87
2018-07-12T10:12:54.038Z,1.40
2018-07-12T10:15:29.652Z,1.90
2018-07-12T10:18:05.438Z,2.20
2018-07-12T10:20:35.975Z,1.93
2018-07-12T10:23:06.916Z,2.60
2018-07-12T10:25:37.654Z,1.43
2018-07-12T10:28:08.324Z,2.03
2018-07-12T10:30:38.861Z,2.47
2018-07-12T10:33:09.839Z,1.83
2018-07-12T10:35:40.553Z,2.07
2018-07-12T10:38:11.089Z,1.90
2018-07-12T10:40:42.760Z,1.70
2018-07-12T10:43:13.476Z,1.70
2018-07-12T10:45:43.997Z,2.03
2018-07-12T10:48:14.706Z,2.00
2018-07-12T10:50:45.436Z,2.23
2018-07-12T10:53:16.144Z,2.00
2018-07-12T10:55:46.438Z,2.60
2018-07-12T10:58:16.904Z,2.03
2018-07-12T11:00:47.777Z,1.73
2018-07-12T11:03:19.207Z,1.73
2018-07-12T11:05:50.424Z,1.50
2018-07-12T11:08:20.950Z,1.70
2018-07-12T11:10:51.806Z,1.40
2018-07-12T11:13:39.425Z,1.50
2018-07-12T11:16:09.883Z,1.70
2018-07-12T11:18:40.335Z,2.37
2018-07-12T11:21:11.104Z,1.47
2018-07-12T11:23:42.022Z,1.50
2018-07-12T11:26:13.225Z,1.50
2018-07-12T11:28:44.080Z,2.00
2018-07-12T11:31:14.558Z,1.63
2018-07-12T11:33:46.359Z,1.80
2018-07-12T11:36:16.978Z,1.60
2018-07-12T11:38:48.030Z,1.50
2018-07-12T11:41:18.500Z,1.57
2018-07-12T11:43:48.979Z,1.40
2018-07-12T11:46:20.210Z,1.60
2018-07-12T11:48:50.822Z,1.80
2018-07-12T11:51:21.504Z,1.80
2018-07-12T11:53:52.119Z,1.97
2018-07-12T11:56:22.372Z,1.97
2018-07-12T11:58:52.862Z,1.80
2018-07-12T12:01:23.455Z,1.77
2018-07-12T12:03:53.989Z,1.80
2018-07-12T12:06:24.695Z,2.00
2018-07-12T12:08:55.304Z,1.40
2018-07-12T12:11:26.016Z,1.30
2018-07-12T12:13:57.899Z,1.40
2018-07-12T12:16:28.614Z,1.40
2018-07-12T12:18:59.355Z,1.40
2018-07-12T12:21:29.782Z,2.03
2018-07-12T12:24:00.332Z,1.90
2018-07-12T12:26:31.479Z,2.10
2018-07-12T12:29:02.186Z,2.20
2018-07-12T12:31:32.869Z,1.90
2018-07-12T12:34:04.055Z,1.90
2018-07-12T12:36:34.662Z,2.00
2018-07-12T12:39:06.756Z,2.43
2018-07-12T12:41:37.856Z,2.20
2018-07-12T12:44:09.274Z,2.37
2018-07-12T12:46:39.859Z,2.83
2018-07-12T12:49:10.518Z,2.50
2018-07-12T12:51:41.848Z,2.63
2018-07-12T12:54:12.360Z,2.90
2018-07-12T12:56:43.030Z,2.87
2018-07-12T12:59:13.920Z,2.80
2018-07-12T13:01:44.632Z,2.90
2018-07-12T13:04:15.523Z,2.93
2018-07-12T13:06:45.967Z,3.10
2018-07-12T13:09:16.912Z,2.17
2018-07-12T13:11:47.514Z,2.10
2018-07-12T13:14:17.815Z,2.50
2018-07-12T13:16:47.908Z,2.53
2018-07-12T13:19:18.595Z,2.50
2018-07-12T13:21:49.316Z,2.60
2018-07-12T13:24:20.411Z,2.60
2018-07-12T13:26:51.088Z,2.30
2018-07-12T13:29:21.701Z,2.00
2018-07-12T13:31:52.545Z,2.17
2018-07-12T13:34:23.410Z,2.80
2018-07-12T13:36:53.720Z,2.40
2018-07-12T13:39:24.108Z,2.00
2018-07-12T13:41:54.780Z,2.40
2018-07-12T13:44:26.167Z,2.40
2018-07-12T13:46:56.779Z,2.30
2018-07-12T13:49:27.474Z,2.00
2018-07-12T13:51:58.151Z,2.50
2018-07-12T13:54:29.806Z,2.40
2018-07-12T13:57:01.080Z,2.20
2018-07-12T13:59:31.718Z,2.60
2018-07-12T14:02:02.418Z,1.97
2018-07-12T14:04:33.049Z,1.77
2018-07-12T14:07:03.547Z,2.10
2018-07-12T14:09:34.261Z,2.40
2018-07-12T14:12:04.909Z,2.17
2018-07-12T14:14:35.447Z,2.00
2018-07-12T14:17:06.433Z,2.13
2018-07-12T14:19:36.602Z,2.30
2018-07-12T14:22:07.280Z,1.50
2018-07-12T14:24:37.995Z,2.00
2018-07-12T14:27:08.749Z,2.57
2018-07-12T14:29:39.289Z,2.00
2018-07-12T14:32:10.018Z,2.10
2018-07-12T14:34:40.585Z,2.50
2018-07-12T14:37:11.411Z,2.10
2018-07-12T14:39:41.968Z,2.23
2018-07-12T14:42:12.741Z,2.43
2018-07-12T14:44:43.297Z,2.20
2018-07-12T14:47:14.031Z,2.00
2018-07-12T14:49:44.707Z,2.53
2018-07-12T14:52:15.378Z,2.87
2018-07-12T14:54:46.243Z,2.00
2018-07-12T14:57:16.676Z,2.37
2018-07-12T14:59:47.316Z,2.17
2018-07-12T15:02:17.894Z,1.80
2018-07-12T15:04:48.447Z,2.90
2018-07-12T15:07:19.417Z,2.80
2018-07-12T15:09:50.086Z,2.60
2018-07-12T15:12:20.673Z,2.50
2018-07-12T15:14:51.129Z,1.90
2018-07-12T15:17:21.802Z,2.23
2018-07-12T15:19:52.417Z,3.53
2018-07-12T15:22:23.077Z,2.60
2018-07-12T15:24:53.548Z,6.97
2018-07-12T15:27:24.312Z,3.77
2018-07-12T15:29:54.936Z,2.60
2018-07-12T15:32:25.723Z,2.17
2018-07-12T15:34:56.416Z,2.87
2018-07-12T15:37:27.047Z,2.50
2018-07-12T15:39:57.758Z,2.60
2018-07-12T15:42:28.267Z,3.07
2018-07-12T15:44:58.839Z,2.50
2018-07-12T15:47:29.642Z,2.37
2018-07-12T15:50:00.304Z,2.53
2018-07-12T15:52:30.935Z,2.03
2018-07-12T15:55:01.132Z,2.17
2018-07-12T15:57:31.817Z,2.70
2018-07-12T16:00:02.325Z,2.80
2018-07-12T16:02:32.929Z,2.10
2018-07-12T16:05:03.762Z,2.67
2018-07-12T16:07:34.121Z,2.43
2018-07-12T16:10:04.747Z,2.77
2018-07-12T16:12:35.352Z,2.60
2018-07-12T16:15:06.147Z,3.20
2018-07-12T16:17:36.550Z,3.03
2018-07-12T16:20:07.532Z,2.80
2018-07-12T16:22:38.217Z,3.03
2018-07-12T16:25:09.004Z,3.13
2018-07-12T16:27:39.770Z,3.00
2018-07-12T16:30:10.616Z,2.63
2018-07-12T16:32:41.237Z,2.60
2018-07-12T16:35:11.888Z,3.97
2018-07-12T16:37:42.585Z,3.13
2018-07-12T16:40:13.236Z,3.50
2018-07-12T16:42:43.968Z,3.53
2018-07-12T16:45:15.112Z,3.10
2018-07-12T16:47:45.778Z,3.50
2018-07-12T16:50:16.587Z,3.17
2018-07-12T16:52:47.218Z,3.60
2018-07-12T16:55:18.423Z,3.50
2018-07-12T16:57:48.980Z,3.70
2018-07-12T17:00:19.887Z,3.67
2018-07-12T17:02:51.006Z,3.43
2018-07-12T17:05:21.599Z,3.80
2018-07-12T17:07:52.490Z,3.80
2018-07-12T17:10:23.057Z,4.27
2018-07-12T17:12:54.059Z,4.13
2018-07-12T17:15:24.901Z,3.70
2018-07-12T17:17:55.587Z,3.97
2018-07-12T17:20:26.189Z,4.10
2018-07-12T17:22:57.452Z,4.57
2018-07-12T17:25:28.213Z,4.03
2018-07-12T17:27:59.629Z,4.83
2018-07-12T17:30:30.096Z,3.97
2018-07-12T17:33:00.702Z,3.80
2018-07-12T17:35:31.238Z,6.70
2018-07-12T17:38:01.786Z,4.50
2018-07-12T17:40:32.276Z,4.03
2018-07-12T17:43:03.023Z,4.10
2018-07-12T17:45:33.517Z,3.93
2018-07-12T17:48:04.132Z,4.50
2018-07-12T17:50:34.851Z,5.00
2018-07-12T17:53:05.576Z,4.40
2018-07-12T17:55:36.386Z,4.40
2018-07-12T17:58:07.162Z,4.87
2018-07-12T18:00:40.646Z,4.60
2018-07-12T18:03:11.281Z,4.43
2018-07-12T18:05:41.976Z,3.90
2018-07-12T18:08:12.600Z,5.00
2018-07-12T18:10:43.480Z,5.40
2018-07-12T18:13:14.176Z,7.37
2018-07-12T18:15:44.451Z,6.00
2018-07-12T18:18:14.859Z,6.37
2018-07-12T18:20:45.475Z,6.60
2018-07-12T18:23:16.393Z,6.83
2018-07-12T18:25:46.976Z,5.80
2018-07-12T18:28:17.575Z,6.70
2018-07-12T18:30:48.232Z,5.57
2018-07-12T18:33:19.137Z,6.50
2018-07-12T18:35:49.316Z,5.57
2018-07-12T18:38:19.887Z,6.10
2018-07-12T18:40:50.512Z,5.97
2018-07-12T18:43:21.053Z,6.17
2018-07-12T18:45:51.304Z,6.00
2018-07-12T18:48:21.909Z,5.93
2018-07-12T18:50:52.171Z,5.80
2018-07-12T18:53:22.372Z,5.33
2018-07-12T18:55:52.831Z,6.10
2018-07-12T18:58:23.412Z,5.30
2018-07-12T19:00:54.208Z,5.73
2018-07-12T19:03:24.680Z,5.67
2018-07-12T19:05:55.246Z,4.57
2018-07-12T19:08:26.163Z,5.00
2018-07-12T19:10:56.677Z,5.63
2018-07-12T19:13:27.296Z,6.27
2018-07-12T19:15:58.838Z,6.60
2018-07-12T19:18:29.931Z,8.23
2018-07-12T19:21:00.687Z,7.50
2018-07-12T19:23:31.829Z,7.97
2018-07-12T19:26:02.520Z,8.77
2018-07-12T19:28:33.168Z,8.90
2018-07-12T19:31:03.645Z,7.40
2018-07-12T19:33:35.001Z,9.53
2018-07-12T19:36:05.559Z,9.40
2018-07-12T19:38:36.381Z,10.77
2018-07-12T19:41:06.933Z,10.63
2018-07-12T19:43:38.446Z,6.57
2018-07-12T19:46:10.061Z,9.63
2018-07-12T19:48:40.800Z,9.77
2018-07-12T19:51:12.169Z,10.30
2018-07-12T19:53:42.777Z,11.03
2018-07-12T19:56:13.572Z,10.40
2018-07-12T19:58:44.194Z,9.60
2018-07-12T20:01:14.838Z,10.70
2018-07-12T20:03:45.956Z,11.77
2018-07-12T20:06:16.907Z,11.27
2018-07-12T20:08:47.309Z,10.40
2018-07-12T20:11:17.961Z,11.30
2018-07-12T20:13:48.788Z,11.50
2018-07-12T20:16:19.651Z,12.77
2018-07-12T20:18:50.210Z,11.70
2018-07-12T20:21:20.804Z,11.80
2018-07-12T20:23:51.684Z,12.90
2018-07-12T20:26:22.644Z,11.47
2018-07-12T20:28:53.471Z,12.70
2018-07-12T20:31:24.417Z,13.17
2018-07-12T20:33:55.094Z,11.67
2018-07-12T20:36:25.771Z,12.93
2018-07-12T20:38:56.456Z,12.20
2018-07-12T20:41:32.183Z,11.27
2018-07-12T20:44:03.070Z,10.23
2018-07-12T20:46:34.003Z,11.40
2018-07-12T20:49:04.575Z,11.40
2018-07-12T20:51:35.244Z,10.20
2018-07-12T20:54:06.723Z,12.40
2018-07-12T20:56:37.183Z,11.13
2018-07-12T20:59:07.857Z,10.70
2018-07-12T21:01:38.545Z,10.87
2018-07-12T21:04:09.222Z,11.53
2018-07-12T21:06:39.892Z,11.80
2018-07-12T21:09:11.062Z,11.67
2018-07-12T21:11:41.747Z,12.10
2018-07-12T21:14:12.477Z,10.50
2018-07-12T21:16:43.087Z,9.67
2018-07-12T21:19:13.790Z,10.67
2018-07-12T21:21:44.469Z,9.67
2018-07-12T21:24:15.007Z,12.30
2018-07-12T21:26:45.857Z,11.93
2018-07-12T21:29:16.694Z,11.83
2018-07-12T21:31:47.324Z,11.53
2018-07-12T21:34:17.983Z,10.43
2018-07-12T21:36:48.657Z,10.87
2018-07-12T21:39:18.944Z,12.03
2018-07-12T21:41:49.419Z,11.87
2018-07-12T21:44:20.084Z,11.17
2018-07-12T21:46:51.095Z,10.13
2018-07-12T21:49:21.819Z,11.13
2018-07-12T21:51:52.511Z,10.60
2018-07-12T21:54:23.017Z,11.93
2018-07-12T21:56:53.568Z,10.50
2018-07-12T21:59:24.137Z,10.90
2018-07-12T22:01:55.328Z,11.57
2018-07-12T22:04:25.927Z,12.53
2018-07-12T22:08:14.209Z,11.90
2018-07-12T22:10:46.166Z,11.00
2018-07-12T22:13:17.386Z,10.77
2018-07-12T22:15:48.215Z,11.30
2018-07-12T22:18:18.708Z,10.40
2018-07-12T22:20:49.270Z,10.83
2018-07-12T22:23:20.018Z,11.73
2018-07-12T22:25:50.835Z,10.67
2018-07-12T22:28:21.596Z,9.90
2018-07-12T22:30:52.282Z,10.33
2018-07-12T22:33:22.869Z,10.80
2018-07-12T22:35:53.649Z,10.30
2018-07-12T22:38:24.311Z,11.10
2018-07-12T22:40:54.856Z,10.30
2018-07-12T22:43:25.568Z,10.80
2018-07-12T22:45:56.079Z,11.23
2018-07-12T22:48:26.944Z,11.10
2018-07-12T22:50:57.413Z,11.47
2018-07-12T22:53:28.129Z,10.90
2018-07-12T22:55:58.758Z,10.70
2018-07-12T22:58:29.451Z,11.67
2018-07-12T23:04:36.014Z,10.93
2018-07-12T23:07:06.779Z,12.03
2018-07-12T23:09:37.041Z,11.17
2018-07-12T23:12:07.683Z,12.43
2018-07-12T23:14:38.526Z,12.50
2018-07-12T23:17:15.743Z,12.40
2018-07-12T23:19:46.301Z,11.50
2018-07-12T23:22:17.047Z,12.80
2018-07-12T23:24:47.883Z,11.47
2018-07-12T23:27:18.918Z,11.57
2018-07-12T23:29:49.561Z,12.30
2018-07-12T23:32:20.191Z,12.17
2018-07-12T23:34:50.845Z,11.00
2018-07-12T23:37:21.480Z,10.73
2018-07-12T23:39:52.808Z,10.83
2018-07-12T23:42:23.107Z,11.60
2018-07-12T23:44:53.415Z,10.90
2018-07-12T23:47:24.108Z,11.10
2018-07-12T23:49:54.792Z,11.07
2018-07-12T23:52:25.513Z,9.60
2018-07-12T23:54:56.085Z,10.20
2018-07-12T23:57:26.794Z,9.37
2018-07-12T23:59:57.313Z,10.70
